createdAt,value
2023-01-15T04:09:51.619Z,12.00
2023-01-15T04:12:20.151Z,8.20
2023-01-15T04:14:48.697Z,8.70
2023-01-15T04:17:17.251Z,8.80
2023-01-15T04:19:45.783Z,8.90
2023-01-15T04:22:15.317Z,8.70
2023-01-15T04:24:44.219Z,8.80
2023-01-15T04:27:12.758Z,8.90
2023-01-15T04:29:41.413Z,8.60
2023-01-15T04:32:11.204Z,8.70
2023-01-15T04:34:39.753Z,8.70
2023-01-15T04:37:08.279Z,8.60
2023-01-15T04:39:36.969Z,8.70
2023-01-15T04:42:23.026Z,8.70
2023-01-15T04:44:51.568Z,8.70
2023-01-15T04:47:20.189Z,8.70
2023-01-15T04:49:48.856Z,8.80
2023-01-15T04:52:17.535Z,8.80
2023-01-15T04:54:46.237Z,8.80
2023-01-15T04:57:14.753Z,8.80
2023-01-15T04:59:43.507Z,8.70
2023-01-15T05:02:14.086Z,8.70
2023-01-15T05:04:42.411Z,8.70
2023-01-15T05:07:11.526Z,8.70
2023-01-15T05:09:40.160Z,8.70
2023-01-15T05:12:09.425Z,8.80
2023-01-15T05:14:37.976Z,8.80
2023-01-15T05:17:06.605Z,8.70
2023-01-15T05:19:35.146Z,8.70
2023-01-15T05:22:03.780Z,8.70
2023-01-15T05:24:32.290Z,8.80
2023-01-15T05:27:01.046Z,8.70
2023-01-15T05:29:29.902Z,8.70
2023-01-15T05:31:58.799Z,8.80
2023-01-15T05:34:27.409Z,8.80
2023-01-15T05:36:55.942Z,8.70
2023-01-15T05:39:24.548Z,8.70
2023-01-15T05:41:53.969Z,8.80
2023-01-15T05:44:25.556Z,8.70
2023-01-15T05:46:57.029Z,8.70
2023-01-15T05:49:27.398Z,8.70
2023-01-15T05:51:56.412Z,8.70
2023-01-15T05:54:27.549Z,8.70
2023-01-15T05:56:56.453Z,8.60
2023-01-15T05:59:27.432Z,8.60
2023-01-15T06:01:56.975Z,8.60
2023-01-15T06:04:25.890Z,8.60
2023-01-15T06:06:55.799Z,8.70
2023-01-15T06:09:24.988Z,8.60
2023-01-15T06:11:54.137Z,8.70
2023-01-15T06:14:24.443Z,8.70
2023-01-15T06:16:53.022Z,8.60
2023-01-15T06:19:21.598Z,8.50
2023-01-15T06:21:50.126Z,8.70
2023-01-15T06:24:20.014Z,8.70
2023-01-15T06:26:49.844Z,8.70
2023-01-15T06:29:20.322Z,8.70
2023-01-15T06:31:49.521Z,8.60
2023-01-15T06:34:18.235Z,8.60
2023-01-15T06:36:46.897Z,8.60
2023-01-15T06:39:16.293Z,8.50
2023-01-15T06:42:02.400Z,8.60
2023-01-15T06:44:48.488Z,8.60
2023-01-15T06:47:23.282Z,8.50
2023-01-15T06:49:57.875Z,8.60
2023-01-15T06:52:28.315Z,8.50
2023-01-15T06:54:57.434Z,8.50
2023-01-15T06:57:26.016Z,8.50
2023-01-15T08:07:42.765Z,8.40
2023-01-15T08:10:13.018Z,8.60
2023-01-15T08:12:59.628Z,8.50
2023-01-15T08:15:30.172Z,8.70
2023-01-15T08:17:59.119Z,8.60
2023-01-15T08:20:28.209Z,8.60
2023-01-15T08:22:56.948Z,8.60
2023-01-15T08:25:26.788Z,8.60
2023-01-15T08:27:56.502Z,8.60
2023-01-15T08:30:26.428Z,8.60
2023-01-15T08:32:58.341Z,8.50
2023-01-15T08:35:26.912Z,8.50
2023-01-15T08:37:55.521Z,8.50
2023-01-15T08:40:24.146Z,8.50
2023-01-15T08:42:52.693Z,8.50
2023-01-15T08:45:21.275Z,8.50
2023-01-15T08:47:50.028Z,8.50
2023-01-15T08:50:18.762Z,8.50
2023-01-15T08:52:47.769Z,8.50
2023-01-15T08:55:16.629Z,8.40
2023-01-15T08:57:45.548Z,8.40
2023-01-15T09:00:16.195Z,8.50
2023-01-15T09:02:44.962Z,8.40
2023-01-15T09:05:13.671Z,8.30
2023-01-15T09:07:42.276Z,8.30
2023-01-15T09:10:11.372Z,8.30
2023-01-15T09:12:39.949Z,8.30
2023-01-15T09:15:09.037Z,8.20
2023-01-15T09:17:39.316Z,8.20
2023-01-15T09:20:10.855Z,8.10
2023-01-15T09:22:40.054Z,8.10
2023-01-15T09:25:09.301Z,8.10
2023-01-15T09:27:37.868Z,8.00
2023-01-15T09:30:07.062Z,8.00
2023-01-15T09:32:35.679Z,7.90
2023-01-15T13:13:25.658Z,8.10
2023-01-15T13:16:09.365Z,14.30
2023-01-15T13:18:55.807Z,13.90
2023-01-15T13:21:27.406Z,14.10
2023-01-15T13:24:04.840Z,13.70
2023-01-15T14:31:19.119Z,13.70
2023-01-15T14:34:12.123Z,10.60
2023-01-15T14:36:41.692Z,10.60
2023-01-15T14:39:13.309Z,10.50
2023-01-15T14:41:59.658Z,10.40
2023-01-15T14:44:30.508Z,10.40
2023-01-15T14:47:02.180Z,10.30
2023-01-15T14:49:36.803Z,10.30
2023-01-15T14:52:05.426Z,10.20
2023-01-15T14:54:34.638Z,10.20
2023-01-15T14:57:07.555Z,10.20
2023-01-15T14:59:39.176Z,10.20
2023-01-15T15:07:29.357Z,10.10
2023-01-15T15:10:02.057Z,10.00
2023-01-15T15:12:48.351Z,9.90
2023-01-15T15:15:23.163Z,10.00
2023-01-15T15:18:00.537Z,9.80
2023-01-15T15:20:32.351Z,10.10
2023-01-15T15:23:06.819Z,10.00
2023-01-15T15:25:39.619Z,9.90
2023-01-15T15:28:12.875Z,9.80
2023-01-15T15:30:44.878Z,9.70
2023-01-15T15:33:22.560Z,9.70
2023-01-15T15:35:56.443Z,9.70
2023-01-15T15:38:26.803Z,9.60
2023-01-15T15:40:58.895Z,9.60
2023-01-15T15:44:00.461Z,9.60
2023-01-15T15:46:49.476Z,9.60
2023-01-15T15:49:20.028Z,9.40
2023-01-15T15:51:51.964Z,9.30
2023-01-15T15:54:30.638Z,9.30
2023-01-15T15:57:07.251Z,9.20
2023-01-15T15:59:41.188Z,9.10
2023-01-15T16:02:31.378Z,9.10
2023-01-15T16:05:02.426Z,9.10
2023-01-15T16:07:37.373Z,9.10
2023-01-15T16:10:17.576Z,9.00
2023-01-15T16:12:52.405Z,9.20
2023-01-15T16:15:24.013Z,9.20
2023-01-15T16:17:52.718Z,9.20
2023-01-15T16:20:22.115Z,10.10
2023-01-15T16:22:53.761Z,8.70
2023-01-15T16:25:28.344Z,9.20
2023-01-15T16:27:57.439Z,9.20
2023-01-15T16:30:26.276Z,9.20
2023-01-15T16:32:57.811Z,9.20
2023-01-15T16:35:26.974Z,9.30
2023-01-15T16:37:58.251Z,9.20
2023-01-15T16:40:32.834Z,9.20
2023-01-15T16:43:16.045Z,9.30
2023-01-15T16:46:05.617Z,9.20
2023-01-15T16:48:39.629Z,9.50
2023-01-15T16:51:27.673Z,9.30
2023-01-15T16:53:56.687Z,9.30
2023-01-15T16:56:28.252Z,9.20
2023-01-15T16:58:56.807Z,9.20
2023-01-15T17:01:43.628Z,9.20
2023-01-15T17:04:30.150Z,9.20
2023-01-15T17:07:07.697Z,9.10
2023-01-15T17:09:38.089Z,9.20
2023-01-15T17:12:29.260Z,9.20
2023-01-15T17:15:00.884Z,9.30
2023-01-15T17:17:30.116Z,9.20
2023-01-15T17:19:58.809Z,9.20
2023-01-15T17:22:30.898Z,9.20
2023-01-15T17:25:01.674Z,9.20
2023-01-15T17:27:31.385Z,9.10
2023-01-15T17:29:59.963Z,9.10
2023-01-15T17:32:36.199Z,9.10
2023-01-15T17:35:05.207Z,9.00
2023-01-15T17:37:33.862Z,9.00
2023-01-15T17:40:03.863Z,8.90
2023-01-15T17:42:32.513Z,8.90
2023-01-15T17:45:01.140Z,8.80
2023-01-15T17:47:29.687Z,8.80
2023-01-15T17:49:58.405Z,8.30
2023-01-15T17:52:26.969Z,8.70
2023-01-15T17:55:13.543Z,8.70
2023-01-15T17:57:59.598Z,8.60
2023-01-15T18:00:48.485Z,8.60
2023-01-15T18:03:37.327Z,8.60
2023-01-15T18:06:07.192Z,8.50
2023-01-15T18:08:36.128Z,8.50
2023-01-15T18:11:05.967Z,8.50
2023-01-15T18:13:34.585Z,8.50
2023-01-15T18:16:05.627Z,8.50
2023-01-15T18:18:34.020Z,8.50
2023-01-15T18:21:03.255Z,8.50
2023-01-15T18:23:34.389Z,8.50
2023-01-15T18:26:09.063Z,8.50
2023-01-15T18:31:08.383Z,8.60
2023-01-15T18:33:36.949Z,8.60
2023-01-15T18:36:11.511Z,8.50
2023-01-15T18:38:43.555Z,8.60
2023-01-15T18:41:32.810Z,8.60
2023-01-15T18:44:23.645Z,8.60
2023-01-15T18:46:54.993Z,8.60
2023-01-15T18:49:23.598Z,8.50
2023-01-15T18:51:53.923Z,8.10
2023-01-15T18:54:22.457Z,8.40
2023-01-15T18:56:51.025Z,8.40
2023-01-15T18:59:20.880Z,8.40
2023-01-15T19:01:49.975Z,8.40
2023-01-15T19:04:20.399Z,8.30
2023-01-15T19:06:49.238Z,8.30
2023-01-15T19:09:20.303Z,8.20
2023-01-15T19:11:49.149Z,8.30
2023-01-15T19:14:35.498Z,8.50
2023-01-15T19:17:21.830Z,8.30
2023-01-15T19:19:50.507Z,7.00
2023-01-15T19:22:37.220Z,8.30
2023-01-15T19:25:06.416Z,8.20
2023-01-15T19:27:35.227Z,8.30
2023-01-15T19:30:05.601Z,8.30
2023-01-15T19:32:34.747Z,8.20
2023-01-15T19:35:03.531Z,8.30
2023-01-15T19:37:34.918Z,8.30
2023-01-15T19:40:05.214Z,8.30
2023-01-15T19:42:51.969Z,8.30
2023-01-15T19:45:38.740Z,8.30
2023-01-15T19:48:27.718Z,8.40
2023-01-15T19:50:56.371Z,8.40
2023-01-15T19:53:25.221Z,8.40
2023-01-15T19:55:54.133Z,8.50
2023-01-15T19:58:22.948Z,8.40
2023-01-15T20:00:52.976Z,8.50
2023-01-15T20:03:22.024Z,8.50
2023-01-15T20:05:50.643Z,8.60
2023-01-15T20:08:19.509Z,8.60
2023-01-15T20:10:50.092Z,8.60
2023-01-15T20:13:40.137Z,8.50
2023-01-15T20:16:14.728Z,8.50
2023-01-15T20:18:43.470Z,8.60
2023-01-15T20:21:15.638Z,8.50
2023-01-15T20:23:45.486Z,8.50
2023-01-15T20:26:15.897Z,8.50
2023-01-15T20:28:46.450Z,8.50
2023-01-15T20:31:19.201Z,8.40
2023-01-15T20:33:48.185Z,8.40
2023-01-15T20:36:16.958Z,8.40
2023-01-15T20:38:45.769Z,8.50
2023-01-15T20:41:32.012Z,8.40
2023-01-15T20:44:18.342Z,8.40
2023-01-15T20:46:47.155Z,8.40
2023-01-15T20:49:29.153Z,8.30
2023-01-15T20:51:58.192Z,8.30
2023-01-15T20:54:27.773Z,8.30
2023-01-15T20:56:56.314Z,8.30
2023-01-15T20:59:25.051Z,8.40
2023-01-15T21:01:55.157Z,8.40
2023-01-15T21:04:24.016Z,8.30
2023-01-15T21:06:54.304Z,8.40
2023-01-15T21:09:23.025Z,8.40
2023-01-15T21:11:51.707Z,8.40
2023-01-15T21:14:20.529Z,8.40
2023-01-15T21:16:51.051Z,8.40
2023-01-15T21:19:21.076Z,8.30
2023-01-15T21:21:49.769Z,8.20
2023-01-15T21:24:18.408Z,8.00
2023-01-15T21:26:48.645Z,7.90
2023-01-15T21:29:17.394Z,7.70
2023-01-15T21:31:46.269Z,7.60
2023-01-15T21:34:15.023Z,7.50
2023-01-15T21:36:43.742Z,7.40
2023-01-15T21:39:14.704Z,7.30
2023-01-15T21:42:01.497Z,7.30
2023-01-15T21:44:37.830Z,7.20
2023-01-15T21:47:12.754Z,7.10
2023-01-15T21:49:42.887Z,6.90
2023-01-15T21:52:17.178Z,7.10
2023-01-15T21:54:46.417Z,6.90
2023-01-15T21:57:15.557Z,7.10
2023-01-15T21:59:44.157Z,7.10
2023-01-15T22:02:16.542Z,7.00
2023-01-15T22:04:44.791Z,7.00
2023-01-15T22:07:13.480Z,7.10
2023-01-15T22:09:42.059Z,7.00
2023-01-15T22:12:10.761Z,7.10
2023-01-15T22:14:39.717Z,7.10
2023-01-15T22:17:09.108Z,6.90
2023-01-15T22:19:37.676Z,7.00
2023-01-15T22:22:08.659Z,7.00
2023-01-15T22:24:39.259Z,7.90
2023-01-15T22:27:10.535Z,7.00
2023-01-15T22:29:41.234Z,7.10
2023-01-15T22:32:12.080Z,7.10
2023-01-15T22:34:40.878Z,7.00
2023-01-15T22:37:10.129Z,7.10
2023-01-15T22:39:38.949Z,7.10
2023-01-15T22:42:25.226Z,7.10
2023-01-15T22:44:54.184Z,7.20
2023-01-15T22:47:23.193Z,7.20
2023-01-15T22:49:52.960Z,7.40
2023-01-15T22:52:23.305Z,7.10
2023-01-15T22:54:52.022Z,7.10
2023-01-15T22:57:21.657Z,7.20
2023-01-15T22:59:53.213Z,7.20
2023-01-15T23:02:23.461Z,7.30
2023-01-15T23:04:52.050Z,7.40
2023-01-15T23:07:22.620Z,7.40
2023-01-15T23:09:51.225Z,7.40
2023-01-15T23:12:19.792Z,7.50
2023-01-15T23:14:50.830Z,7.50
2023-01-15T23:17:19.354Z,7.60
2023-01-15T23:19:47.932Z,7.50
2023-01-15T23:22:16.632Z,7.50
2023-01-15T23:24:45.342Z,7.50
2023-01-15T23:27:13.960Z,7.50
2023-01-15T23:29:42.513Z,7.60
2023-01-15T23:32:11.023Z,7.50
2023-01-15T23:34:39.615Z,7.50
2023-01-15T23:37:08.145Z,7.60
2023-01-15T23:39:36.682Z,7.60
2023-01-15T23:42:22.741Z,7.70
2023-01-15T23:45:09.049Z,7.70
2023-01-15T23:47:37.599Z,7.80
2023-01-15T23:50:06.377Z,7.90
2023-01-15T23:52:34.911Z,7.80
2023-01-15T23:55:03.439Z,7.90
2023-01-15T23:57:32.017Z,7.90
